Terminal Aerodrome Forecast
Issued by NWS

Home | Current Version | Previous Version | Text Only | Print | Product List | Glossary On
Versions: 1 2 3 4 5 6 7 8 9 10 11 12 13 14 15 16 17 18 19 20 21
000
FTUS41 KCAR 090521
TAFHUL
TAF
KHUL 090521Z 0906/1006 36012KT 3/4SM -SN OVC012
     FM091600 03010KT 1 1/2SM -SN OVC015
     FM091900 03009KT 5SM -SHSN OVC015
     FM100200 35006KT 6SM -SHSN BR OVC008=

USA.gov is the U.S. government's official web portal to all federal, state and local government web resources and services.